createdAt,value
2022-08-02T00:01:09.681Z,20.46
2022-08-02T00:03:40.450Z,20.46
2022-08-02T00:06:11.146Z,20.44
2022-08-02T00:08:38.917Z,20.42
2022-08-02T00:11:09.693Z,20.43
2022-08-02T00:13:37.545Z,20.37
2022-08-02T00:16:08.749Z,20.37
2022-08-02T00:18:36.499Z,20.41
2022-08-02T00:21:09.726Z,20.43
2022-08-02T00:24:03.535Z,20.40
2022-08-02T00:26:34.566Z,20.38
2022-08-02T00:29:04.980Z,20.37
2022-08-02T00:31:37.841Z,20.38
2022-08-02T00:34:28.674Z,20.37
2022-08-02T00:36:53.379Z,20.37
2022-08-02T00:39:34.972Z,20.41
2022-08-02T00:42:06.386Z,20.49
2022-08-02T00:44:34.196Z,20.48
2022-08-02T00:47:02.109Z,20.50
2022-08-02T00:49:30.029Z,20.52
2022-08-02T00:51:57.884Z,20.50
2022-08-02T00:54:25.921Z,20.48
2022-08-02T00:56:53.746Z,20.46
2022-08-02T00:59:21.530Z,20.42
2022-08-02T01:01:57.268Z,20.37
2022-08-02T01:04:32.305Z,20.33
2022-08-02T01:07:13.535Z,20.37
2022-08-02T01:09:45.514Z,20.33
2022-08-02T01:12:18.030Z,20.37
2022-08-02T01:14:52.636Z,20.32
2022-08-02T01:17:39.627Z,20.26
2022-08-02T01:20:14.193Z,20.28
2022-08-02T01:23:12.465Z,20.26
2022-08-02T01:26:17.280Z,20.22
2022-08-02T01:28:52.417Z,20.20
2022-08-02T01:31:26.237Z,20.19
2022-08-02T01:34:02.828Z,20.18
2022-08-02T01:36:41.570Z,20.12
2022-08-02T01:39:26.700Z,20.09
2022-08-02T01:42:01.744Z,20.12
2022-08-02T01:44:31.635Z,20.11
2022-08-02T01:47:01.421Z,20.06
2022-08-02T01:49:29.336Z,20.04
2022-08-02T01:52:24.625Z,20.06
2022-08-02T01:55:04.882Z,20.05
2022-08-02T01:57:41.880Z,20.06
2022-08-02T02:00:13.634Z,20.05
2022-08-02T02:02:43.804Z,20.09
2022-08-02T02:05:15.973Z,20.07
2022-08-02T02:07:47.487Z,20.04
2022-08-02T02:10:16.573Z,19.95
2022-08-02T02:12:45.339Z,19.88
2022-08-02T02:15:18.169Z,19.81
2022-08-02T02:17:52.976Z,19.80
2022-08-02T02:20:37.697Z,19.68
2022-08-02T02:23:05.479Z,19.61
2022-08-02T02:25:35.878Z,19.60
2022-08-02T02:28:16.255Z,19.55
2022-08-02T02:30:49.992Z,19.54
2022-08-02T02:33:21.060Z,19.50
2022-08-02T02:35:50.085Z,19.46
2022-08-02T02:38:18.902Z,19.42
2022-08-02T02:40:50.254Z,19.41
2022-08-02T02:43:20.806Z,19.41
2022-08-02T02:45:48.789Z,19.40
2022-08-02T02:48:19.555Z,19.42
2022-08-02T02:50:47.350Z,19.42
2022-08-02T02:53:15.165Z,19.42
2022-08-02T02:56:02.210Z,19.35
2022-08-02T02:58:31.414Z,19.32
2022-08-02T03:01:18.025Z,19.25
2022-08-02T03:03:48.601Z,19.18
2022-08-02T03:06:16.443Z,19.15
2022-08-02T03:08:44.695Z,19.14
2022-08-02T03:11:12.520Z,19.12
2022-08-02T03:13:46.131Z,19.09
2022-08-02T03:16:19.626Z,19.11
2022-08-02T03:18:52.974Z,19.08
2022-08-02T03:21:28.954Z,19.05
2022-08-02T03:24:01.013Z,19.02
2022-08-02T03:26:31.702Z,19.00
2022-08-02T03:29:09.840Z,19.00
2022-08-02T03:31:41.064Z,19.04
2022-08-02T03:34:08.863Z,19.00
2022-08-02T03:36:36.661Z,18.96
2022-08-02T03:39:04.665Z,18.99
2022-08-02T03:41:32.426Z,18.98
2022-08-02T03:44:02.793Z,18.96
2022-08-02T03:46:35.098Z,19.02
2022-08-02T03:49:05.749Z,19.03
2022-08-02T03:51:33.684Z,18.98
2022-08-02T03:54:04.579Z,18.95
2022-08-02T03:56:37.133Z,18.90
2022-08-02T03:59:10.191Z,18.95
2022-08-02T04:01:38.063Z,18.94
2022-08-02T04:04:06.940Z,18.89
2022-08-02T04:06:39.883Z,18.87
2022-08-02T04:09:09.373Z,18.81
2022-08-02T04:11:37.314Z,18.80
2022-08-02T04:14:08.441Z,18.80
2022-08-02T04:16:55.433Z,18.78
2022-08-02T04:19:29.757Z,18.78
2022-08-02T04:21:57.555Z,18.78
2022-08-02T04:24:29.089Z,18.76
2022-08-02T04:27:04.035Z,18.78
2022-08-02T04:29:35.804Z,18.81
2022-08-02T04:32:04.519Z,18.81
2022-08-02T04:34:35.513Z,18.88
2022-08-02T04:37:08.031Z,18.91
2022-08-02T04:39:35.915Z,19.00
2022-08-02T04:42:03.755Z,19.09
2022-08-02T04:44:31.519Z,19.13
2022-08-02T04:47:07.026Z,19.15
2022-08-02T04:49:34.907Z,19.15
2022-08-02T04:52:02.727Z,19.19
2022-08-02T04:54:35.806Z,19.20
2022-08-02T04:57:26.492Z,19.19
2022-08-02T04:59:54.741Z,19.27
2022-08-02T05:02:22.550Z,19.28
2022-08-02T05:04:50.420Z,19.26
2022-08-02T05:07:18.251Z,19.29
2022-08-02T05:09:56.422Z,19.38
2022-08-02T05:12:27.382Z,19.39
2022-08-02T05:14:55.196Z,19.35
2022-08-02T05:17:23.017Z,19.36
2022-08-02T05:19:50.831Z,19.41
2022-08-02T05:22:21.642Z,19.44
2022-08-02T05:24:57.905Z,19.50
2022-08-02T05:27:30.709Z,19.60
2022-08-02T05:30:01.234Z,19.68
2022-08-02T05:32:29.009Z,19.79
2022-08-02T05:34:58.791Z,19.84
2022-08-02T05:37:26.684Z,19.86
2022-08-02T05:40:01.923Z,19.91
2022-08-02T05:42:38.679Z,19.85
2022-08-02T05:45:09.774Z,19.93
2022-08-02T05:47:40.983Z,20.03
2022-08-02T05:50:09.671Z,20.06
2022-08-02T05:52:47.583Z,20.10
2022-08-02T05:55:20.258Z,20.16
2022-08-02T05:57:57.644Z,20.23
2022-08-02T06:00:34.657Z,20.26
2022-08-02T06:03:04.776Z,20.32
2022-08-02T06:05:40.721Z,20.35
2022-08-02T06:08:11.862Z,20.38
2022-08-02T06:10:44.904Z,20.36
2022-08-02T06:13:17.597Z,20.36
2022-08-02T06:15:52.924Z,20.40
2022-08-02T06:18:27.785Z,20.47
2022-08-02T06:22:31.402Z,20.54
2022-08-02T06:23:58.749Z,20.56
2022-08-02T06:26:32.625Z,20.62
2022-08-02T06:29:00.742Z,20.62
2022-08-02T06:31:33.453Z,20.58
2022-08-02T06:34:04.349Z,20.59
2022-08-02T06:36:48.962Z,20.62
2022-08-02T06:39:33.747Z,20.63
2022-08-02T06:42:05.369Z,20.58
2022-08-02T06:44:50.059Z,20.61
2022-08-02T06:47:23.183Z,20.67
2022-08-02T06:49:56.570Z,20.74
2022-08-02T06:52:29.666Z,20.77
2022-08-02T06:55:01.897Z,20.81
2022-08-02T06:57:38.489Z,20.90
2022-08-02T07:00:12.617Z,20.98
2022-08-02T07:02:46.394Z,21.03
2022-08-02T07:05:20.549Z,21.06
2022-08-02T07:07:54.169Z,21.17
2022-08-02T07:10:27.417Z,21.21
2022-08-02T07:13:01.280Z,21.35
2022-08-02T07:15:34.654Z,21.44
2022-08-02T07:18:17.077Z,21.49
2022-08-02T07:20:48.206Z,21.55
2022-08-02T07:23:25.896Z,21.57
2022-08-02T07:26:01.876Z,21.60
2022-08-02T07:28:34.964Z,21.63
2022-08-02T07:31:10.940Z,21.66
2022-08-02T07:33:47.209Z,21.65
2022-08-02T07:36:17.037Z,21.73
2022-08-02T07:38:59.368Z,21.76
2022-08-02T07:41:32.601Z,21.89
2022-08-02T07:44:03.773Z,21.98
2022-08-02T07:46:34.791Z,21.98
2022-08-02T07:49:20.041Z,22.03
2022-08-02T07:51:48.086Z,22.25
2022-08-02T07:54:18.859Z,22.32
2022-08-02T07:56:46.816Z,22.35
2022-08-02T07:59:31.468Z,22.40
2022-08-02T08:01:59.467Z,22.54
2022-08-02T08:04:29.818Z,22.63
2022-08-02T08:07:02.756Z,22.79
2022-08-02T08:09:30.647Z,22.96
2022-08-02T08:12:03.208Z,23.09
2022-08-02T08:14:34.116Z,23.19
2022-08-02T08:17:05.474Z,23.32
2022-08-02T08:19:51.551Z,23.42
2022-08-02T08:22:25.491Z,23.57
2022-08-02T08:24:58.231Z,23.73
2022-08-02T08:27:26.220Z,23.86
2022-08-02T08:29:54.341Z,23.96
2022-08-02T08:32:22.564Z,24.13
2022-08-02T08:34:50.797Z,24.20
2022-08-02T08:37:18.953Z,24.34
2022-08-02T08:39:58.392Z,24.41
2022-08-02T08:42:32.336Z,24.54
2022-08-02T08:45:01.111Z,24.71
2022-08-02T08:47:42.421Z,24.81
2022-08-02T08:50:18.943Z,24.88
2022-08-02T08:53:02.964Z,24.98
2022-08-02T08:55:34.654Z,25.09
2022-08-02T08:58:03.234Z,25.11
2022-08-02T09:00:37.393Z,25.26
2022-08-02T09:03:06.199Z,25.45
2022-08-02T09:05:39.198Z,25.50
2022-08-02T09:08:14.820Z,25.65
2022-08-02T09:10:50.958Z,25.72
2022-08-02T09:13:31.371Z,25.85
2022-08-02T09:16:14.656Z,25.89
2022-08-02T09:18:47.932Z,26.00
2022-08-02T09:21:23.578Z,26.08
2022-08-02T09:23:58.548Z,26.19
2022-08-02T09:26:33.460Z,26.33
2022-08-02T09:29:03.015Z,26.53
2022-08-02T09:31:30.809Z,26.56
2022-08-02T09:34:06.614Z,26.63
2022-08-02T09:36:54.473Z,26.78
2022-08-02T09:39:27.698Z,26.80
2022-08-02T09:41:58.457Z,26.90
2022-08-02T09:44:28.506Z,26.84
2022-08-02T09:47:05.228Z,26.91
2022-08-02T09:49:36.293Z,27.02
2022-08-02T09:52:04.082Z,27.07
2022-08-02T09:54:35.118Z,27.09
2022-08-02T09:57:02.994Z,27.12
2022-08-02T09:59:36.101Z,27.36
2022-08-02T10:02:17.018Z,27.44
2022-08-02T10:04:52.434Z,27.64
2022-08-02T10:07:24.052Z,27.66
2022-08-02T10:09:53.024Z,27.68
2022-08-02T10:12:26.139Z,27.74
2022-08-02T10:14:54.078Z,27.86
2022-08-02T10:17:24.742Z,27.89
2022-08-02T10:20:02.962Z,27.93
2022-08-02T10:22:37.464Z,28.02
2022-08-02T10:25:07.995Z,28.00
2022-08-02T10:28:03.815Z,28.12
2022-08-02T10:30:27.336Z,28.15
2022-08-02T10:32:57.670Z,28.12
2022-08-02T10:35:32.247Z,28.24
2022-08-02T10:38:05.315Z,28.34
2022-08-02T10:40:54.473Z,28.34
2022-08-02T10:43:45.793Z,28.46
2022-08-02T10:46:28.941Z,28.51
2022-08-02T10:52:03.003Z,28.64
2022-08-02T10:54:41.802Z,28.77
2022-08-02T10:57:38.656Z,28.75
2022-08-02T11:00:28.006Z,28.84
2022-08-02T11:03:00.735Z,28.91
2022-08-02T11:05:43.178Z,28.98
2022-08-02T11:08:23.930Z,29.00
2022-08-02T11:10:54.340Z,29.07
2022-08-02T11:13:28.155Z,29.12
2022-08-02T11:16:11.308Z,29.28
2022-08-02T11:18:48.523Z,29.33
2022-08-02T11:21:26.857Z,29.39
2022-08-02T11:23:54.570Z,29.40
2022-08-02T11:26:31.575Z,29.39
2022-08-02T11:29:02.166Z,29.45
2022-08-02T11:31:32.318Z,29.43
2022-08-02T11:34:06.517Z,29.54
2022-08-02T11:36:53.783Z,29.58
2022-08-02T11:39:22.904Z,29.52
2022-08-02T11:41:54.586Z,29.52
2022-08-02T11:44:26.225Z,29.62
2022-08-02T11:47:05.467Z,29.64
2022-08-02T11:49:35.836Z,29.54
2022-08-02T11:52:08.495Z,29.57
2022-08-02T11:54:37.655Z,29.63
2022-08-02T11:57:21.162Z,29.75
2022-08-02T11:59:56.211Z,29.70
2022-08-02T12:02:29.081Z,29.69
2022-08-02T12:05:02.076Z,29.71
2022-08-02T12:07:46.236Z,29.89
2022-08-02T12:10:19.438Z,30.05
2022-08-02T12:12:51.884Z,30.07
2022-08-02T12:15:34.981Z,30.10
2022-08-02T12:18:28.497Z,30.08
2022-08-02T12:20:58.789Z,30.08
2022-08-02T12:23:29.729Z,30.22
2022-08-02T12:26:07.573Z,30.37
2022-08-02T12:28:36.953Z,30.41
2022-08-02T12:31:12.384Z,30.53
2022-08-02T12:33:48.013Z,30.57
2022-08-02T12:36:23.354Z,30.51
2022-08-02T12:38:54.823Z,30.46
2022-08-02T12:41:30.495Z,30.44
2022-08-02T12:44:07.745Z,30.48
2022-08-02T12:46:42.112Z,30.59
2022-08-02T12:49:22.034Z,30.55
2022-08-02T12:51:54.756Z,30.61
2022-08-02T12:54:31.693Z,30.66
2022-08-02T12:57:13.158Z,30.71
2022-08-02T12:59:45.641Z,30.75
2022-08-02T13:02:21.621Z,30.60
2022-08-02T13:05:00.456Z,30.75
2022-08-02T13:07:28.838Z,30.87
2022-08-02T13:10:02.600Z,30.91
2022-08-02T13:12:31.090Z,30.89
2022-08-02T13:15:01.013Z,31.03
2022-08-02T13:17:34.241Z,31.10
2022-08-02T13:20:05.205Z,31.25
2022-08-02T13:22:36.929Z,31.30
2022-08-02T13:25:10.633Z,31.37
2022-08-02T13:27:46.143Z,31.31
2022-08-02T13:30:13.977Z,31.37
2022-08-02T13:32:41.754Z,31.48
2022-08-02T13:35:17.952Z,31.52
2022-08-02T13:37:46.633Z,31.59
2022-08-02T13:40:21.979Z,31.48
2022-08-02T13:42:53.146Z,31.54
2022-08-02T13:45:26.549Z,31.57
2022-08-02T13:48:04.370Z,31.57
2022-08-02T13:50:33.576Z,31.61
2022-08-02T13:53:01.350Z,31.47
2022-08-02T13:55:31.860Z,31.51
2022-08-02T13:58:12.683Z,31.51
2022-08-02T14:00:45.701Z,31.44
2022-08-02T14:03:13.547Z,31.43
2022-08-02T14:05:48.468Z,31.30
2022-08-02T14:08:24.112Z,31.25
2022-08-02T14:10:59.405Z,31.27
2022-08-02T14:13:36.052Z,31.17
2022-08-02T14:16:06.609Z,31.12
2022-08-02T14:18:34.422Z,31.03
2022-08-02T14:21:02.220Z,30.91
2022-08-02T14:23:49.446Z,30.76
2022-08-02T14:26:27.044Z,30.69
2022-08-02T14:29:03.085Z,30.59
2022-08-02T14:31:30.923Z,30.47
2022-08-02T14:33:58.721Z,30.33
2022-08-02T14:36:27.442Z,30.16
2022-08-02T14:38:56.546Z,29.98
2022-08-02T14:41:29.139Z,29.90
2022-08-02T14:44:05.242Z,29.83
2022-08-02T14:46:33.871Z,29.64
2022-08-02T14:49:05.366Z,29.54
2022-08-02T14:51:33.374Z,29.38
2022-08-02T14:54:02.720Z,29.18
2022-08-02T14:56:31.308Z,28.99
2022-08-02T14:58:59.205Z,28.90
2022-08-02T15:01:27.076Z,28.90
2022-08-02T15:04:00.504Z,28.91
2022-08-02T15:06:33.940Z,28.89
2022-08-02T15:09:04.891Z,28.82
2022-08-02T15:11:47.772Z,28.72
2022-08-02T15:14:21.695Z,28.70
2022-08-02T15:16:58.447Z,28.59
2022-08-02T15:19:40.859Z,28.52
2022-08-02T15:22:22.863Z,28.46
2022-08-02T15:24:50.854Z,28.38
2022-08-02T15:27:18.646Z,28.29
2022-08-02T15:29:49.276Z,28.28
2022-08-02T15:32:19.891Z,28.27
2022-08-02T15:34:50.306Z,28.20
2022-08-02T15:37:20.852Z,28.15
2022-08-02T15:39:54.455Z,28.19
2022-08-02T15:42:30.304Z,28.18
2022-08-02T15:45:03.983Z,28.15
2022-08-02T15:47:39.854Z,28.16
2022-08-02T15:50:19.044Z,28.14
2022-08-02T15:52:46.979Z,28.12
2022-08-02T15:55:18.239Z,28.11
2022-08-02T15:57:46.159Z,28.08
2022-08-02T16:00:19.272Z,28.08
2022-08-02T16:02:48.119Z,28.07
2022-08-02T16:05:21.520Z,28.07
2022-08-02T16:07:49.312Z,28.05
2022-08-02T16:10:17.584Z,28.04
2022-08-02T16:12:45.425Z,28.01
2022-08-02T16:15:17.942Z,27.99
2022-08-02T16:17:54.332Z,27.94
2022-08-02T16:20:24.883Z,27.91
2022-08-02T16:22:52.725Z,27.87
2022-08-02T16:25:29.512Z,27.86
2022-08-02T16:28:06.217Z,27.87
2022-08-02T16:30:36.915Z,27.85
2022-08-02T16:33:04.814Z,27.85
2022-08-02T16:35:32.637Z,27.85
2022-08-02T16:38:00.388Z,27.83
2022-08-02T16:40:28.235Z,27.81
2022-08-02T16:42:56.068Z,27.79
2022-08-02T16:45:23.806Z,27.75
2022-08-02T16:47:57.407Z,27.74
2022-08-02T16:50:29.109Z,27.70
2022-08-02T16:53:07.365Z,27.70
2022-08-02T16:55:35.582Z,27.70
2022-08-02T16:58:03.368Z,27.68
2022-08-02T17:00:34.136Z,27.65
2022-08-02T17:03:13.329Z,27.65
2022-08-02T17:05:56.604Z,27.62
2022-08-02T17:08:32.164Z,27.59
2022-08-02T17:11:05.163Z,27.55
2022-08-02T17:16:25.681Z,27.52
2022-08-02T17:18:58.640Z,27.51
2022-08-02T17:21:30.300Z,27.49
2022-08-02T17:24:04.854Z,27.48
2022-08-02T17:26:35.646Z,27.47
2022-08-02T17:29:16.426Z,27.44
2022-08-02T17:32:05.654Z,27.42
2022-08-02T17:37:29.698Z,27.40
2022-08-02T17:39:58.402Z,27.36
2022-08-02T17:42:31.591Z,27.34
2022-08-02T17:45:16.669Z,27.35
2022-08-02T17:48:03.971Z,27.31
2022-08-02T17:50:38.299Z,27.31
2022-08-02T17:53:06.564Z,27.27
2022-08-02T17:55:42.560Z,27.25
2022-08-02T17:58:15.534Z,27.25
2022-08-02T18:00:45.676Z,27.22
2022-08-02T18:03:17.059Z,27.19
2022-08-02T18:05:53.722Z,27.15
2022-08-02T18:08:26.622Z,27.12
2022-08-02T18:10:57.857Z,27.09
2022-08-02T18:13:25.769Z,27.05
2022-08-02T18:16:02.899Z,27.05
2022-08-02T18:18:34.542Z,27.03
2022-08-02T18:21:15.657Z,27.01
2022-08-02T18:23:49.451Z,27.00
2022-08-02T18:26:28.490Z,26.97
2022-08-02T18:29:04.966Z,26.93
2022-08-02T18:31:51.019Z,26.89
2022-08-02T18:34:23.998Z,26.85
2022-08-02T18:36:52.275Z,26.79
2022-08-02T18:39:20.024Z,26.75
2022-08-02T18:41:55.228Z,26.72
2022-08-02T18:44:30.657Z,26.70
2022-08-02T18:46:59.186Z,26.66
2022-08-02T18:49:29.888Z,26.57
2022-08-02T18:52:31.018Z,26.53
2022-08-02T18:54:59.627Z,26.50
2022-08-02T18:58:17.452Z,26.43
2022-08-02T19:00:20.610Z,26.39
2022-08-02T19:02:56.070Z,26.29
2022-08-02T19:05:23.861Z,26.23
2022-08-02T19:08:11.939Z,26.20
2022-08-02T19:10:49.023Z,26.15
2022-08-02T19:13:19.486Z,26.12
2022-08-02T19:15:51.219Z,26.08
2022-08-02T19:18:19.076Z,26.06
2022-08-02T19:21:02.958Z,26.01
2022-08-02T19:23:33.741Z,26.01
2022-08-02T19:26:01.748Z,25.95
2022-08-02T19:28:34.778Z,25.91
2022-08-02T19:31:02.580Z,25.92
2022-08-02T19:34:06.174Z,25.90
2022-08-02T19:36:19.181Z,25.85
2022-08-02T19:38:55.132Z,25.82
2022-08-02T19:41:24.725Z,25.76
2022-08-02T19:44:25.378Z,25.73
2022-08-02T19:46:44.163Z,25.71
2022-08-02T19:49:40.329Z,25.70
2022-08-02T19:52:21.159Z,25.64
2022-08-02T19:54:55.721Z,25.58
2022-08-02T19:57:27.424Z,25.55
2022-08-02T20:00:01.270Z,25.52
2022-08-02T20:02:33.934Z,25.51
2022-08-02T20:05:16.154Z,25.48
2022-08-02T20:07:55.068Z,25.44
2022-08-02T20:10:27.669Z,25.35
2022-08-02T20:12:55.569Z,25.24
2022-08-02T20:18:16.332Z,25.09
2022-08-02T20:20:59.196Z,24.98
2022-08-02T20:23:33.870Z,24.92
2022-08-02T20:26:08.992Z,24.87
2022-08-02T20:28:40.144Z,24.79
2022-08-02T20:31:12.642Z,24.74
2022-08-02T20:33:55.378Z,24.67
2022-08-02T20:36:27.646Z,24.63
2022-08-02T20:38:55.834Z,24.59
2022-08-02T20:41:37.154Z,24.52
2022-08-02T20:44:15.623Z,24.48
2022-08-02T20:47:03.391Z,24.42
2022-08-02T20:49:41.471Z,24.36
2022-08-02T20:52:33.020Z,24.30
2022-08-02T20:55:16.944Z,24.24
2022-08-02T20:58:00.834Z,24.15
2022-08-02T21:00:29.552Z,24.07
2022-08-02T21:02:57.338Z,24.05
2022-08-02T21:05:53.838Z,23.98
2022-08-02T21:08:20.410Z,23.93
2022-08-02T21:10:52.349Z,23.87
2022-08-02T21:13:26.643Z,23.83
2022-08-02T21:15:56.795Z,23.79
2022-08-02T21:18:40.232Z,23.72
2022-08-02T21:21:09.703Z,23.62
2022-08-02T21:23:48.627Z,23.56
2022-08-02T21:26:19.686Z,23.49
2022-08-02T21:28:51.279Z,23.48
2022-08-02T21:31:19.624Z,23.40
2022-08-02T21:33:57.803Z,23.33
2022-08-02T21:36:32.602Z,23.28
2022-08-02T21:39:08.703Z,23.22
2022-08-02T21:41:39.759Z,23.19
2022-08-02T21:44:21.310Z,23.17
2022-08-02T21:46:50.308Z,23.13
2022-08-02T21:49:27.412Z,23.10
2022-08-02T21:52:10.020Z,23.02
2022-08-02T21:54:41.115Z,22.93
2022-08-02T21:57:15.972Z,22.90
2022-08-02T21:59:52.827Z,22.90
2022-08-02T22:02:30.611Z,22.85
2022-08-02T22:05:01.961Z,22.79
2022-08-02T22:07:38.183Z,22.75
2022-08-02T22:10:07.246Z,22.71
2022-08-02T22:12:39.952Z,22.69
2022-08-02T22:15:12.010Z,22.64
2022-08-02T22:17:50.713Z,22.62
2022-08-02T22:20:22.815Z,22.59
2022-08-02T22:22:52.682Z,22.60
2022-08-02T22:25:27.082Z,22.57
2022-08-02T22:28:36.408Z,22.56
2022-08-02T22:30:56.869Z,22.53
2022-08-02T22:33:47.260Z,22.49
2022-08-02T22:36:43.318Z,22.49
2022-08-02T22:39:19.212Z,22.44
2022-08-02T22:42:06.052Z,22.37
2022-08-02T22:44:40.032Z,22.32
2022-08-02T22:47:17.223Z,22.31
2022-08-02T22:52:35.206Z,22.24
2022-08-02T22:55:06.441Z,22.19
2022-08-02T22:57:34.331Z,22.16
2022-08-02T22:58:50.584Z,27.39
2022-08-02T22:58:50.748Z,27.55
2022-08-02T22:58:54.954Z,25.16
2022-08-02T22:59:09.955Z,22.28
2022-08-02T23:00:22.081Z,22.18
2022-08-02T23:02:49.850Z,22.17
2022-08-02T23:05:21.865Z,22.17
2022-08-02T23:07:49.679Z,22.17
2022-08-02T23:10:17.513Z,22.17
2022-08-02T23:12:48.232Z,22.12
2022-08-02T23:15:16.014Z,22.04
2022-08-02T23:18:02.259Z,22.00
2022-08-02T23:20:30.211Z,21.96
2022-08-02T23:22:57.975Z,21.94
2022-08-02T23:25:25.764Z,21.92
2022-08-02T23:27:58.564Z,21.91
2022-08-02T23:30:26.383Z,21.88
2022-08-02T23:32:54.108Z,21.85
2022-08-02T23:35:21.913Z,21.82
2022-08-02T23:37:59.554Z,21.79
2022-08-02T23:40:40.299Z,21.75
2022-08-02T23:43:14.070Z,21.72
2022-08-02T23:45:50.839Z,21.69
2022-08-02T23:48:20.777Z,21.66
2022-08-02T23:50:48.943Z,21.66
2022-08-02T23:53:16.975Z,21.62
2022-08-02T23:55:46.832Z,21.57
2022-08-02T23:58:17.000Z,21.55
